Terminal Aerodrome Forecast
Issued by NWS Melbourne, FL

Home | Current Version | Previous Version | Text Only | Print | Product List | Glossary On
Versions: 1 2 3 4 5 6 7 8 9 10 11 12
000
FTUS42 KMLB 301700 RRA
TAFMLB
TAF
KMLB 301743Z 3018/3118 29012KT P6SM SCT025 BKN040 BKN250
      TEMPO 3018/3021 BKN025
     FM302100 32012G20KT P6SM FEW030 SCT060 SCT250
     FM310000 36011KT P6SM SCT250
     FM311400 04012G18KT P6SM FEW250=

USA.gov is the U.S. government's official web portal to all federal, state and local government web resources and services.